Time;durP1;ratioP1;P1;durP2;ratioP2;P2;SDS_P1;SDS_P2;PMS_P1;PMS_P2;Temp;Humidity;BMP_temperature;BMP_pressure;BME280_temperature;BME280_humidity;BME280_pressure;Samples;Min_cycle;Max_cycle;Signal;HPM_P1;HPM_P2
2022/12/29 00:00:04;;;;;;;11.03;7.07;;;;;;;;;;4970777;28;20190;-72
2022/12/29 00:02:37;;;;;;;16.50;8.37;;;;;;;;;;4970334;28;20564;-72
2022/12/29 00:05:05;;;;;;;14.50;8.37;;;;;;;;;;4971392;28;20185;-72
2022/12/29 00:07:31;;;;;;;16.13;9.80;;;;;;;;;;4940530;28;20604;-73
2022/12/29 00:09:58;;;;;;;14.37;9.20;;;;;;;;;;4956035;28;20224;-73
2022/12/29 00:12:25;;;;;;;15.63;10.03;;;;;;;;;;4973503;28;20575;-73
2022/12/29 00:17:36;;;;;;;15.37;10.17;;;;;;;;;;4959410;28;20185;-73
2022/12/29 00:36:56;;;;;;;14.13;8.80;;;;;;;;;;4973405;28;20277;-73
2022/12/29 00:44:54;;;;;;;11.97;8.10;;;;;;;;;;4972290;28;20664;-72
2022/12/29 00:47:21;;;;;;;10.53;7.07;;;;;;;;;;4973075;28;20202;-73
2022/12/29 00:49:48;;;;;;;11.30;7.63;;;;;;;;;;4955844;28;20245;-73
2022/12/29 00:52:16;;;;;;;12.40;7.10;;;;;;;;;;4972684;28;20209;-73
2022/12/29 00:54:44;;;;;;;10.63;7.00;;;;;;;;;;4972606;28;20189;-73
2022/12/29 00:57:12;;;;;;;10.27;6.70;;;;;;;;;;4972813;28;20178;-73
2022/12/29 00:59:39;;;;;;;9.40;6.40;;;;;;;;;;4956078;28;20256;-73
2022/12/29 01:02:06;;;;;;;7.73;6.63;;;;;;;;;;4939308;28;20204;-73
2022/12/29 01:04:32;;;;;;;9.27;6.23;;;;;;;;;;4935341;29;20297;-72
2022/12/29 01:06:59;;;;;;;9.13;6.10;;;;;;;;;;4920380;29;20202;-72
2022/12/29 01:12:11;;;;;;;5.90;4.27;;;;;;;;;;4935949;29;20218;-73
2022/12/29 01:14:40;;;;;;;7.03;5.53;;;;;;;;;;4936670;28;20194;-73
2022/12/29 01:17:06;;;;;;;6.67;5.40;;;;;;;;;;4952908;29;20216;-72
2022/12/29 01:19:33;;;;;;;8.03;4.97;;;;;;;;;;4936061;29;20194;-73
2022/12/29 01:22:00;;;;;;;6.23;4.20;;;;;;;;;;4951884;29;20653;-73
2022/12/29 01:24:27;;;;;;;6.33;5.07;;;;;;;;;;4935351;29;20198;-72
2022/12/29 01:26:54;;;;;;;6.23;5.00;;;;;;;;;;4951869;29;20229;-72
2022/12/29 01:29:21;;;;;;;6.63;4.90;;;;;;;;;;4952913;28;20202;-73
2022/12/29 01:31:49;;;;;;;5.80;4.87;;;;;;;;;;4951690;29;20271;-72
2022/12/29 01:34:16;;;;;;;6.80;4.40;;;;;;;;;;4952920;28;20185;-73
2022/12/29 01:36:43;;;;;;;5.20;4.20;;;;;;;;;;4953704;28;20201;-73
2022/12/29 01:39:11;;;;;;;5.57;3.87;;;;;;;;;;4939014;28;20796;-73
2022/12/29 01:41:55;;;;;;;4.70;3.67;;;;;;;;;;4954598;28;20174;-73
2022/12/29 02:16:22;;;;;;;3.30;3.00;;;;;;;;;;4951787;28;20588;-66
2022/12/29 02:19:08;;;;;;;3.87;3.03;;;;;;;;;;4952130;29;20775;-66
2022/12/29 02:21:40;;;;;;;3.70;3.07;;;;;;;;;;4937325;28;20196;-66
2022/12/29 02:24:10;;;;;;;4.33;3.13;;;;;;;;;;4938077;28;20193;-66
2022/12/29 02:26:39;;;;;;;4.87;3.60;;;;;;;;;;4970641;28;20670;-66
2022/12/29 02:29:21;;;;;;;4.10;3.33;;;;;;;;;;4971105;28;20221;-66
2022/12/29 02:32:22;;;;;;;3.93;3.30;;;;;;;;;;4953675;28;20243;-66
2022/12/29 02:34:53;;;;;;;3.93;3.03;;;;;;;;;;4953759;28;20248;-66
2022/12/29 02:37:39;;;;;;;3.17;2.63;;;;;;;;;;4970925;28;20216;-66
2022/12/29 02:40:06;;;;;;;3.47;3.03;;;;;;;;;;4934755;28;20557;-66
2022/12/29 02:42:36;;;;;;;3.70;2.80;;;;;;;;;;4951636;29;20206;-66
2022/12/29 02:45:04;;;;;;;3.20;2.17;;;;;;;;;;4934562;29;20614;-66
2022/12/29 02:47:36;;;;;;;3.90;2.70;;;;;;;;;;4934209;29;20194;-66
2022/12/29 02:50:08;;;;;;;4.00;2.43;;;;;;;;;;4949499;29;20221;-66
2022/12/29 02:52:39;;;;;;;8.00;3.20;;;;;;;;;;4952610;28;20304;-66
2022/12/29 02:55:06;;;;;;;5.03;3.00;;;;;;;;;;4934497;28;21095;-66
2022/12/29 02:57:34;;;;;;;7.43;3.13;;;;;;;;;;4934366;29;20225;-66
2022/12/29 03:00:03;;;;;;;6.73;3.30;;;;;;;;;;4950479;28;20289;-66
2022/12/29 03:02:32;;;;;;;4.40;2.90;;;;;;;;;;4950134;28;20210;-66
2022/12/29 03:05:17;;;;;;;4.23;3.00;;;;;;;;;;4950173;29;20204;-66
2022/12/29 03:08:13;;;;;;;4.60;3.30;;;;;;;;;;4951455;29;20252;-67
2022/12/29 03:10:58;;;;;;;4.70;3.33;;;;;;;;;;4899709;29;20319;-67
2022/12/29 03:16:25;;;;;;;5.07;3.90;;;;;;;;;;4947647;29;20201;-66
2022/12/29 03:18:55;;;;;;;4.17;3.60;;;;;;;;;;4968404;28;20645;-66
2022/12/29 03:21:21;;;;;;;6.07;4.37;;;;;;;;;;4937539;28;20193;-66
2022/12/29 03:23:49;;;;;;;4.93;4.10;;;;;;;;;;4970867;28;20220;-66
2022/12/29 03:26:18;;;;;;;5.87;4.13;;;;;;;;;;4937456;28;20241;-66
2022/12/29 03:28:46;;;;;;;4.60;3.87;;;;;;;;;;4952682;28;20292;-67
2022/12/29 03:31:18;;;;;;;5.60;4.03;;;;;;;;;;4937932;28;20221;-67
2022/12/29 03:33:46;;;;;;;6.37;4.50;;;;;;;;;;4937229;28;20198;-66
2022/12/29 03:36:15;;;;;;;7.20;4.53;;;;;;;;;;4934854;29;20202;-67
2022/12/29 03:38:45;;;;;;;4.47;4.00;;;;;;;;;;4950547;28;20199;-67
2022/12/29 03:41:12;;;;;;;4.13;3.73;;;;;;;;;;4953709;29;20178;-67
2022/12/29 03:43:39;;;;;;;5.03;3.97;;;;;;;;;;4953631;28;20196;-67
2022/12/29 03:46:06;;;;;;;4.97;4.17;;;;;;;;;;4954832;29;20190;-66
2022/12/29 03:48:33;;;;;;;6.27;4.40;;;;;;;;;;4937465;29;20253;-67
2022/12/29 03:51:00;;;;;;;7.60;5.07;;;;;;;;;;4953615;29;20703;-67
2022/12/29 03:53:27;;;;;;;6.27;4.60;;;;;;;;;;4959229;28;20257;-66
2022/12/29 03:55:53;;;;;;;7.17;5.23;;;;;;;;;;4954482;28;20277;-66
2022/12/29 03:58:21;;;;;;;8.00;5.40;;;;;;;;;;4941385;29;20202;-67
2022/12/29 04:00:59;;;;;;;8.47;6.20;;;;;;;;;;4937369;29;20234;-66
2022/12/29 04:03:26;;;;;;;7.27;6.00;;;;;;;;;;4937134;29;20253;-66
2022/12/29 04:05:53;;;;;;;7.63;6.10;;;;;;;;;;4937584;29;20549;-67
2022/12/29 04:08:20;;;;;;;7.93;6.80;;;;;;;;;;4937261;29;20214;-69
2022/12/29 04:10:50;;;;;;;9.90;6.63;;;;;;;;;;4933911;28;20245;-67
2022/12/29 04:13:20;;;;;;;8.87;6.93;;;;;;;;;;4941231;28;20213;-69
2022/12/29 04:15:46;;;;;;;9.23;6.80;;;;;;;;;;4956033;28;20264;-69
2022/12/29 04:18:13;;;;;;;10.43;8.10;;;;;;;;;;4973644;28;20272;-67
2022/12/29 04:23:27;;;;;;;13.53;8.60;;;;;;;;;;4936588;29;20194;-68
2022/12/29 04:25:54;;;;;;;12.90;8.73;;;;;;;;;;4936619;29;20230;-68
2022/12/29 04:28:20;;;;;;;14.30;9.63;;;;;;;;;;4936913;29;20198;-67
2022/12/29 04:31:08;;;;;;;12.63;9.53;;;;;;;;;;4936846;29;20229;-67
2022/12/29 04:33:38;;;;;;;12.00;9.17;;;;;;;;;;4936532;29;20202;-69
2022/12/29 04:36:06;;;;;;;14.00;9.43;;;;;;;;;;4936809;29;20217;-68
2022/12/29 04:38:34;;;;;;;14.90;10.53;;;;;;;;;;4945068;29;20206;-67
2022/12/29 04:41:03;;;;;;;13.40;8.90;;;;;;;;;;4952296;29;20214;-66
2022/12/29 04:43:30;;;;;;;15.37;10.73;;;;;;;;;;4947561;28;20284;-67
2022/12/29 04:46:17;;;;;;;12.07;8.33;;;;;;;;;;4955750;28;20216;-70
2022/12/29 04:48:52;;;;;;;14.93;10.80;;;;;;;;;;4965484;28;20211;-68
2022/12/29 04:51:47;;;;;;;13.17;9.60;;;;;;;;;;4940402;28;20241;-70
2022/12/29 04:54:15;;;;;;;11.23;8.90;;;;;;;;;;4949528;28;20548;-69
2022/12/29 04:56:46;;;;;;;10.50;7.07;;;;;;;;;;4937464;28;20619;-68
2022/12/29 04:59:15;;;;;;;14.37;11.10;;;;;;;;;;4953008;28;20201;-67
2022/12/29 05:01:46;;;;;;;12.57;9.50;;;;;;;;;;4951389;28;20259;-69
2022/12/29 05:04:13;;;;;;;16.60;10.67;;;;;;;;;;4970484;28;20193;-68
2022/12/29 05:06:41;;;;;;;15.70;9.60;;;;;;;;;;4953002;28;20201;-68
2022/12/29 05:09:08;;;;;;;16.20;10.10;;;;;;;;;;4956556;28;20902;-68
2022/12/29 05:11:35;;;;;;;12.30;6.23;;;;;;;;;;4951970;28;20241;-67
2022/12/29 05:14:02;;;;;;;11.50;9.10;;;;;;;;;;4952281;28;20206;-67
2022/12/29 05:16:28;;;;;;;14.13;10.20;;;;;;;;;;4951485;28;20205;-68
2022/12/29 05:18:56;;;;;;;8.83;5.60;;;;;;;;;;4953191;28;20296;-68
2022/12/29 05:21:23;;;;;;;14.40;9.33;;;;;;;;;;4976297;28;20563;-68
2022/12/29 05:23:50;;;;;;;12.10;7.33;;;;;;;;;;4957359;28;20570;-67
2022/12/29 05:26:17;;;;;;;10.60;7.90;;;;;;;;;;4957257;28;20285;-68
2022/12/29 05:28:52;;;;;;;13.83;9.73;;;;;;;;;;4949617;28;20197;-70
2022/12/29 05:31:19;;;;;;;15.07;10.10;;;;;;;;;;4954243;28;20240;-71
2022/12/29 05:33:47;;;;;;;14.17;10.70;;;;;;;;;;4954136;28;20208;-70
2022/12/29 05:36:14;;;;;;;12.33;9.37;;;;;;;;;;4932640;29;20450;-70
2022/12/29 05:38:45;;;;;;;13.83;9.93;;;;;;;;;;4946163;28;20213;-66
2022/12/29 05:41:12;;;;;;;14.87;8.73;;;;;;;;;;4942231;28;20609;-66
2022/12/29 05:44:03;;;;;;;12.77;8.90;;;;;;;;;;4934140;28;20324;-66
2022/12/29 05:46:41;;;;;;;13.50;10.37;;;;;;;;;;4946650;29;20201;-67
2022/12/29 05:49:32;;;;;;;13.57;9.23;;;;;;;;;;4940510;28;20205;-67
2022/12/29 05:52:22;;;;;;;10.67;8.10;;;;;;;;;;4950170;28;20340;-67
2022/12/29 05:54:49;;;;;;;14.40;9.87;;;;;;;;;;4969004;28;20738;-67
2022/12/29 05:57:18;;;;;;;15.00;9.73;;;;;;;;;;4952238;28;20203;-67
2022/12/29 05:59:53;;;;;;;11.17;7.00;;;;;;;;;;4951575;28;20205;-66
2022/12/29 06:02:20;;;;;;;12.33;8.23;;;;;;;;;;4968436;28;20172;-67
2022/12/29 06:04:47;;;;;;;12.87;8.37;;;;;;;;;;4951074;28;20565;-67
2022/12/29 06:07:14;;;;;;;15.40;9.00;;;;;;;;;;4951538;28;20201;-66
2022/12/29 06:09:44;;;;;;;12.63;9.67;;;;;;;;;;4950993;28;20257;-67
2022/12/29 06:12:11;;;;;;;13.00;8.57;;;;;;;;;;4969014;28;20581;-66
2022/12/29 06:14:40;;;;;;;12.30;9.33;;;;;;;;;;4951762;28;20197;-67
2022/12/29 06:17:07;;;;;;;13.20;8.57;;;;;;;;;;4951272;28;20201;-66
2022/12/29 06:19:34;;;;;;;13.67;9.07;;;;;;;;;;4951664;28;20609;-67
2022/12/29 06:22:00;;;;;;;9.67;6.77;;;;;;;;;;4950973;28;20635;-66
2022/12/29 06:24:30;;;;;;;13.10;7.90;;;;;;;;;;4951236;28;20252;-66
2022/12/29 06:26:57;;;;;;;14.67;9.03;;;;;;;;;;4950459;28;20197;-67
2022/12/29 06:29:24;;;;;;;11.87;7.97;;;;;;;;;;4967810;28;20333;-67
2022/12/29 06:31:55;;;;;;;12.20;8.33;;;;;;;;;;4950982;28;20725;-67
2022/12/29 06:34:24;;;;;;;12.93;8.43;;;;;;;;;;4951072;28;20209;-67
2022/12/29 06:36:50;;;;;;;12.73;8.33;;;;;;;;;;4968320;28;20719;-66
2022/12/29 06:39:18;;;;;;;10.73;7.97;;;;;;;;;;4950739;28;20746;-66
2022/12/29 06:41:58;;;;;;;12.87;8.90;;;;;;;;;;4946903;28;20295;-67
2022/12/29 06:44:42;;;;;;;12.60;8.70;;;;;;;;;;4962982;28;20204;-67
2022/12/29 06:47:09;;;;;;;11.87;9.13;;;;;;;;;;4937641;28;20612;-66
2022/12/29 06:49:36;;;;;;;14.10;8.80;;;;;;;;;;4960575;28;20197;-66
2022/12/29 06:52:04;;;;;;;9.03;5.67;;;;;;;;;;4967778;28;20284;-66
2022/12/29 06:54:38;;;;;;;13.60;7.83;;;;;;;;;;4966007;28;20204;-66
2022/12/29 06:57:04;;;;;;;13.73;8.30;;;;;;;;;;4949094;29;20609;-67
2022/12/29 06:59:31;;;;;;;12.37;8.47;;;;;;;;;;4960264;28;20656;-70
2022/12/29 07:01:58;;;;;;;12.43;8.33;;;;;;;;;;4949688;28;20227;-69
2022/12/29 07:04:26;;;;;;;13.80;7.70;;;;;;;;;;4969545;28;20228;-67
2022/12/29 07:06:52;;;;;;;15.37;9.13;;;;;;;;;;4967613;28;20197;-68
2022/12/29 07:09:19;;;;;;;13.07;8.03;;;;;;;;;;4966118;28;20194;-66
2022/12/29 07:11:46;;;;;;;11.57;7.57;;;;;;;;;;4970719;28;20229;-67
2022/12/29 07:14:13;;;;;;;13.10;9.23;;;;;;;;;;4972101;28;20189;-67
2022/12/29 07:16:39;;;;;;;9.43;5.97;;;;;;;;;;4971949;28;20221;-67
2022/12/29 07:19:06;;;;;;;13.20;7.10;;;;;;;;;;4974064;28;20726;-66
2022/12/29 07:21:33;;;;;;;12.87;8.37;;;;;;;;;;4974475;28;20197;-67
2022/12/29 07:24:00;;;;;;;15.87;9.07;;;;;;;;;;4974586;28;20193;-67
2022/12/29 07:26:26;;;;;;;12.33;8.60;;;;;;;;;;4971275;28;20235;-70
2022/12/29 07:29:02;;;;;;;13.70;8.87;;;;;;;;;;4945682;28;20732;-68
2022/12/29 07:31:29;;;;;;;13.10;8.17;;;;;;;;;;4964822;28;20347;-69
2022/12/29 07:33:55;;;;;;;14.67;9.23;;;;;;;;;;4973670;28;20201;-68
2022/12/29 07:36:22;;;;;;;14.23;9.77;;;;;;;;;;4973719;28;20201;-66
2022/12/29 07:39:06;;;;;;;14.67;9.43;;;;;;;;;;4972856;28;20521;-66
2022/12/29 07:41:34;;;;;;;9.73;6.73;;;;;;;;;;4967041;28;20193;-65
2022/12/29 07:44:01;;;;;;;13.93;7.73;;;;;;;;;;4956407;28;20204;-65
2022/12/29 07:46:51;;;;;;;14.00;9.13;;;;;;;;;;4959997;28;20213;-66
2022/12/29 07:49:22;;;;;;;12.53;8.07;;;;;;;;;;4969463;28;20198;-66
2022/12/29 07:51:49;;;;;;;9.90;6.37;;;;;;;;;;4972598;28;20304;-66
2022/12/29 07:54:18;;;;;;;13.03;9.07;;;;;;;;;;4972585;28;20232;-66
2022/12/29 07:56:45;;;;;;;13.83;8.93;;;;;;;;;;4973699;28;20185;-66
2022/12/29 07:59:12;;;;;;;14.83;9.60;;;;;;;;;;4973857;28;20636;-67
2022/12/29 08:01:39;;;;;;;19.40;9.60;;;;;;;;;;4973675;28;20183;-63
2022/12/29 08:04:06;;;;;;;8.93;5.87;;;;;;;;;;4973023;28;20189;-63
2022/12/29 08:06:33;;;;;;;12.00;6.47;;;;;;;;;;4970093;28;20224;-63
2022/12/29 08:09:00;;;;;;;14.53;8.50;;;;;;;;;;4972738;28;20190;-63
2022/12/29 08:11:38;;;;;;;14.43;8.07;;;;;;;;;;4973770;28;20206;-63
2022/12/29 08:14:05;;;;;;;15.93;9.37;;;;;;;;;;4972847;28;20763;-63
2022/12/29 08:16:32;;;;;;;15.43;7.83;;;;;;;;;;4972427;28;20193;-63
2022/12/29 08:18:59;;;;;;;18.27;10.50;;;;;;;;;;4973367;28;20276;-63
2022/12/29 08:21:29;;;;;;;12.23;7.30;;;;;;;;;;4955646;28;20189;-63
2022/12/29 08:23:56;;;;;;;14.73;8.87;;;;;;;;;;4971037;28;20196;-63
2022/12/29 08:26:22;;;;;;;10.73;5.93;;;;;;;;;;4963652;28;20229;-63
2022/12/29 08:28:51;;;;;;;11.13;7.53;;;;;;;;;;4973511;28;20201;-63
2022/12/29 08:31:18;;;;;;;13.70;8.67;;;;;;;;;;4972092;28;20917;-63
2022/12/29 08:33:45;;;;;;;14.57;9.10;;;;;;;;;;4967949;28;20198;-63
2022/12/29 08:36:12;;;;;;;11.73;8.37;;;;;;;;;;4970957;28;20200;-64
2022/12/29 08:38:38;;;;;;;12.13;7.73;;;;;;;;;;4973289;28;20214;-62
2022/12/29 08:41:08;;;;;;;11.00;7.83;;;;;;;;;;4971390;28;20221;-63
2022/12/29 08:43:35;;;;;;;9.83;6.27;;;;;;;;;;4971644;28;20219;-64
2022/12/29 08:46:01;;;;;;;11.40;6.53;;;;;;;;;;4971930;28;20197;-66
2022/12/29 08:48:28;;;;;;;10.53;5.90;;;;;;;;;;4965532;28;20192;-63
2022/12/29 08:50:55;;;;;;;6.37;4.93;;;;;;;;;;4973842;28;20188;-63
2022/12/29 08:53:22;;;;;;;11.30;8.23;;;;;;;;;;4972803;28;20221;-62
2022/12/29 08:55:54;;;;;;;9.97;8.40;;;;;;;;;;4973307;28;20201;-63
2022/12/29 08:58:30;;;;;;;9.30;7.53;;;;;;;;;;4951584;28;20194;-63
2022/12/29 09:00:57;;;;;;;9.97;8.27;;;;;;;;;;4950247;28;20206;-63
2022/12/29 09:03:23;;;;;;;10.00;7.80;;;;;;;;;;4969430;28;20601;-63
2022/12/29 09:06:10;;;;;;;10.87;6.70;;;;;;;;;;4970206;28;20198;-64
2022/12/29 09:08:38;;;;;;;10.37;7.30;;;;;;;;;;4954123;28;20198;-64
2022/12/29 09:11:05;;;;;;;11.53;7.50;;;;;;;;;;4972998;28;20252;-63
2022/12/29 09:13:32;;;;;;;9.57;5.73;;;;;;;;;;4960788;28;20665;-63
2022/12/29 09:15:59;;;;;;;11.40;7.63;;;;;;;;;;4971938;28;20189;-63
2022/12/29 09:18:26;;;;;;;6.30;4.17;;;;;;;;;;4973299;28;20249;-63
2022/12/29 09:20:57;;;;;;;17.37;10.00;;;;;;;;;;4971153;28;20198;-63
2022/12/29 09:23:24;;;;;;;9.77;7.60;;;;;;;;;;4964044;28;20189;-63
2022/12/29 09:25:50;;;;;;;10.87;5.70;;;;;;;;;;4971802;28;20236;-63
2022/12/29 09:28:17;;;;;;;14.63;9.20;;;;;;;;;;4970976;28;20252;-63
2022/12/29 09:30:45;;;;;;;16.40;9.97;;;;;;;;;;4972133;28;20200;-63
2022/12/29 09:33:12;;;;;;;17.97;10.53;;;;;;;;;;4970903;28;20217;-63
2022/12/29 09:35:43;;;;;;;12.57;7.67;;;;;;;;;;4972032;28;20189;-64
2022/12/29 09:38:10;;;;;;;11.93;8.57;;;;;;;;;;4970833;28;20248;-63
2022/12/29 09:40:36;;;;;;;10.87;6.80;;;;;;;;;;4969365;28;20204;-63
2022/12/29 09:43:17;;;;;;;10.43;7.43;;;;;;;;;;4954158;28;20698;-63
2022/12/29 09:45:52;;;;;;;14.60;7.50;;;;;;;;;;4947106;28;20237;-63
2022/12/29 09:48:29;;;;;;;13.23;9.57;;;;;;;;;;4946215;28;20688;-63
2022/12/29 09:50:57;;;;;;;11.03;6.63;;;;;;;;;;4946587;28;20221;-63
2022/12/29 09:53:27;;;;;;;11.33;7.43;;;;;;;;;;4964515;28;20241;-63
2022/12/29 09:55:55;;;;;;;11.87;8.97;;;;;;;;;;4971350;28;20686;-63
2022/12/29 09:58:29;;;;;;;11.83;8.00;;;;;;;;;;4953572;28;20645;-63
2022/12/29 10:00:55;;;;;;;8.40;5.00;;;;;;;;;;4971100;28;20229;-63
2022/12/29 10:03:23;;;;;;;6.10;4.07;;;;;;;;;;4969807;28;20240;-63
2022/12/29 10:05:51;;;;;;;12.20;8.27;;;;;;;;;;4971513;28;20218;-63
2022/12/29 10:08:30;;;;;;;7.77;5.33;;;;;;;;;;4963403;28;20197;-63
2022/12/29 10:10:58;;;;;;;7.57;4.93;;;;;;;;;;4942579;29;20269;-63
2022/12/29 10:13:34;;;;;;;9.17;6.20;;;;;;;;;;4951649;29;20214;-63
2022/12/29 10:16:03;;;;;;;8.83;5.00;;;;;;;;;;4969117;28;20189;-64
2022/12/29 10:18:42;;;;;;;10.30;7.60;;;;;;;;;;4951945;28;20221;-63
2022/12/29 10:21:14;;;;;;;11.00;6.53;;;;;;;;;;4967920;28;20245;-64
2022/12/29 10:23:53;;;;;;;9.23;6.70;;;;;;;;;;4968701;28;20692;-64
2022/12/29 10:26:23;;;;;;;10.27;6.40;;;;;;;;;;4970786;28;20578;-63
2022/12/29 10:28:52;;;;;;;9.00;5.40;;;;;;;;;;4950258;28;20208;-63
2022/12/29 10:31:21;;;;;;;10.43;6.57;;;;;;;;;;4953404;28;20873;-63
2022/12/29 10:33:53;;;;;;;5.17;4.00;;;;;;;;;;4952974;28;20189;-63
2022/12/29 10:36:23;;;;;;;8.90;5.67;;;;;;;;;;4953242;28;20269;-63
2022/12/29 10:38:52;;;;;;;11.17;5.90;;;;;;;;;;4965107;28;20521;-63
2022/12/29 10:41:45;;;;;;;10.17;6.17;;;;;;;;;;4968824;28;20872;-63
2022/12/29 10:44:13;;;;;;;9.07;6.60;;;;;;;;;;4950581;28;20213;-63
2022/12/29 10:46:41;;;;;;;9.87;6.60;;;;;;;;;;4945309;28;20661;-63
2022/12/29 10:49:16;;;;;;;8.23;5.77;;;;;;;;;;4922631;29;20232;-63
2022/12/29 10:51:48;;;;;;;6.97;5.03;;;;;;;;;;4951389;29;20218;-63
2022/12/29 10:54:17;;;;;;;7.37;5.07;;;;;;;;;;4951113;28;20246;-63
2022/12/29 10:56:46;;;;;;;8.20;4.43;;;;;;;;;;4934815;29;20260;-63
2022/12/29 10:59:12;;;;;;;6.63;5.10;;;;;;;;;;4951644;28;20221;-63
2022/12/29 11:01:42;;;;;;;7.77;5.33;;;;;;;;;;4967040;28;20608;-63
2022/12/29 11:04:31;;;;;;;6.93;5.37;;;;;;;;;;4937030;28;20288;-63
2022/12/29 11:06:58;;;;;;;4.63;4.17;;;;;;;;;;4943259;29;20199;-64
2022/12/29 11:09:26;;;;;;;8.73;5.70;;;;;;;;;;4966982;28;20915;-64
2022/12/29 11:12:25;;;;;;;7.87;5.17;;;;;;;;;;4955552;28;20229;-64
2022/12/29 11:15:01;;;;;;;6.53;5.37;;;;;;;;;;4964719;28;20229;-63
2022/12/29 11:17:28;;;;;;;5.67;4.33;;;;;;;;;;4951187;28;20194;-63
2022/12/29 11:19:55;;;;;;;7.00;5.00;;;;;;;;;;4950941;29;20205;-64
2022/12/29 11:22:27;;;;;;;8.03;5.27;;;;;;;;;;4961599;28;20212;-63
2022/12/29 11:24:54;;;;;;;6.80;4.90;;;;;;;;;;4960798;28;20621;-64
2022/12/29 11:27:22;;;;;;;7.87;5.27;;;;;;;;;;4963749;28;20537;-63
2022/12/29 11:29:50;;;;;;;7.10;4.43;;;;;;;;;;4969142;28;20192;-63
2022/12/29 11:32:19;;;;;;;8.27;5.50;;;;;;;;;;4968580;28;20225;-63
2022/12/29 11:34:58;;;;;;;7.60;3.53;;;;;;;;;;4968038;28;20209;-63
2022/12/29 11:37:34;;;;;;;7.87;3.87;;;;;;;;;;4966789;28;20244;-63
2022/12/29 11:40:21;;;;;;;6.03;3.70;;;;;;;;;;4949368;28;20740;-64
2022/12/29 11:42:49;;;;;;;7.83;4.37;;;;;;;;;;4944165;28;20664;-65
2022/12/29 11:45:16;;;;;;;10.83;5.33;;;;;;;;;;4970233;28;20189;-63
2022/12/29 11:47:52;;;;;;;7.67;5.20;;;;;;;;;;4953531;28;20202;-63
2022/12/29 11:50:20;;;;;;;7.53;3.87;;;;;;;;;;4942119;28;20243;-63
2022/12/29 11:52:49;;;;;;;7.27;5.10;;;;;;;;;;4948700;28;20217;-65
2022/12/29 11:55:18;;;;;;;7.00;4.20;;;;;;;;;;4934014;29;20221;-64
2022/12/29 11:57:45;;;;;;;5.77;4.27;;;;;;;;;;4944074;28;20728;-63
2022/12/29 12:00:19;;;;;;;7.30;5.30;;;;;;;;;;4949624;28;20661;-63
2022/12/29 12:03:00;;;;;;;10.33;6.13;;;;;;;;;;4956031;28;20700;-64
2022/12/29 12:05:46;;;;;;;8.13;3.80;;;;;;;;;;4972022;28;20237;-64
2022/12/29 12:08:13;;;;;;;5.73;3.93;;;;;;;;;;4956403;28;20193;-63
2022/12/29 12:10:47;;;;;;;8.03;5.67;;;;;;;;;;4973350;28;20201;-65
2022/12/29 12:13:22;;;;;;;7.80;6.07;;;;;;;;;;4971969;28;20252;-63
2022/12/29 12:15:51;;;;;;;8.03;4.20;;;;;;;;;;4948733;29;20602;-64
2022/12/29 12:18:24;;;;;;;8.83;5.50;;;;;;;;;;4954935;28;20330;-64
2022/12/29 12:20:54;;;;;;;6.63;4.57;;;;;;;;;;4954250;29;20186;-63
2022/12/29 12:23:32;;;;;;;8.03;4.87;;;;;;;;;;4937289;28;20790;-65
2022/12/29 12:26:31;;;;;;;8.20;4.73;;;;;;;;;;4944637;28;20217;-63
2022/12/29 12:29:12;;;;;;;8.60;5.77;;;;;;;;;;4918760;28;20253;-63
2022/12/29 12:31:39;;;;;;;7.70;4.60;;;;;;;;;;4954642;28;20195;-63
2022/12/29 12:34:06;;;;;;;7.07;5.00;;;;;;;;;;4956097;28;20735;-63
2022/12/29 12:36:42;;;;;;;6.57;4.93;;;;;;;;;;4952976;28;20229;-64
2022/12/29 12:39:28;;;;;;;8.50;5.30;;;;;;;;;;4955625;28;20220;-64
2022/12/29 12:41:58;;;;;;;6.60;5.30;;;;;;;;;;4973641;28;20227;-63
2022/12/29 12:44:56;;;;;;;7.53;5.70;;;;;;;;;;4973142;28;20700;-66
2022/12/29 12:47:29;;;;;;;8.27;5.20;;;;;;;;;;4954205;28;20549;-64
2022/12/29 12:50:22;;;;;;;7.47;5.20;;;;;;;;;;4953462;28;20229;-63
2022/12/29 12:52:54;;;;;;;9.00;4.47;;;;;;;;;;4941591;28;20222;-63
2022/12/29 12:55:48;;;;;;;8.33;4.97;;;;;;;;;;4963616;28;20244;-63
2022/12/29 12:58:21;;;;;;;6.13;3.87;;;;;;;;;;4929090;28;20198;-63
2022/12/29 13:01:12;;;;;;;10.20;6.70;;;;;;;;;;4968270;28;20177;-63
2022/12/29 13:03:58;;;;;;;10.27;5.63;;;;;;;;;;4969731;28;20194;-63
2022/12/29 13:06:34;;;;;;;8.63;5.27;;;;;;;;;;4966338;28;20205;-63
2022/12/29 13:09:20;;;;;;;9.07;6.37;;;;;;;;;;4965567;28;20196;-63
2022/12/29 13:12:01;;;;;;;9.20;5.50;;;;;;;;;;4971956;28;20760;-63
2022/12/29 13:14:34;;;;;;;8.90;4.90;;;;;;;;;;4937461;29;20206;-64
2022/12/29 13:17:13;;;;;;;11.33;7.17;;;;;;;;;;4952950;29;20194;-63
2022/12/29 13:19:49;;;;;;;13.47;7.77;;;;;;;;;;4951853;29;20190;-64
2022/12/29 13:22:21;;;;;;;13.57;7.80;;;;;;;;;;4952888;28;20296;-63
2022/12/29 13:25:17;;;;;;;8.40;4.80;;;;;;;;;;4951064;29;20692;-63
2022/12/29 13:27:47;;;;;;;12.13;7.43;;;;;;;;;;4900181;28;20206;-63
2022/12/29 13:30:15;;;;;;;14.60;8.07;;;;;;;;;;4936017;29;20187;-63
2022/12/29 13:32:42;;;;;;;14.63;8.73;;;;;;;;;;4936095;29;20244;-64
2022/12/29 13:35:28;;;;;;;14.10;9.07;;;;;;;;;;4952587;28;20197;-63
2022/12/29 13:38:00;;;;;;;14.90;10.20;;;;;;;;;;4964459;28;20189;-63
2022/12/29 13:40:28;;;;;;;17.10;10.53;;;;;;;;;;4938461;28;20201;-63
2022/12/29 13:42:55;;;;;;;22.53;8.00;;;;;;;;;;4955019;28;20564;-63
2022/12/29 13:45:22;;;;;;;13.77;8.60;;;;;;;;;;4970700;28;20209;-63
2022/12/29 13:48:17;;;;;;;16.23;8.37;;;;;;;;;;4970856;28;20181;-64
2022/12/29 13:50:58;;;;;;;17.30;9.43;;;;;;;;;;4943053;29;20229;-63
2022/12/29 13:54:02;;;;;;;13.67;7.43;;;;;;;;;;4963750;28;20565;-63
2022/12/29 13:56:32;;;;;;;32.37;13.30;;;;;;;;;;4971819;28;20193;-63
2022/12/29 13:59:25;;;;;;;23.47;10.97;;;;;;;;;;4971703;28;20189;-63
2022/12/29 14:02:17;;;;;;;6.93;4.20;;;;;;;;;;4966307;28;20305;-63
2022/12/29 14:05:05;;;;;;;14.50;8.50;;;;;;;;;;4957109;28;20692;-62
2022/12/29 14:07:38;;;;;;;13.00;7.90;;;;;;;;;;4969144;28;20202;-63
2022/12/29 14:10:05;;;;;;;10.07;7.30;;;;;;;;;;4953956;28;20229;-63
2022/12/29 14:12:39;;;;;;;12.37;8.63;;;;;;;;;;4972234;28;20288;-63
2022/12/29 14:15:09;;;;;;;9.47;6.17;;;;;;;;;;4972294;28;20189;-63
2022/12/29 14:17:42;;;;;;;15.03;7.13;;;;;;;;;;4971986;28;20225;-63
2022/12/29 14:20:20;;;;;;;9.33;6.47;;;;;;;;;;4972194;28;20813;-63
2022/12/29 14:22:56;;;;;;;10.23;5.80;;;;;;;;;;4954008;28;20213;-63
2022/12/29 14:25:43;;;;;;;6.83;4.03;;;;;;;;;;4970604;28;20260;-63
2022/12/29 14:28:18;;;;;;;8.80;6.07;;;;;;;;;;4971223;28;20249;-63
2022/12/29 14:30:48;;;;;;;8.67;5.60;;;;;;;;;;4954496;28;20735;-63
2022/12/29 14:33:15;;;;;;;12.30;7.33;;;;;;;;;;4971445;28;20204;-63
2022/12/29 14:35:43;;;;;;;11.80;6.83;;;;;;;;;;4954486;28;20193;-64
2022/12/29 14:38:17;;;;;;;14.03;7.63;;;;;;;;;;4974034;28;20661;-63
2022/12/29 14:40:44;;;;;;;11.53;6.83;;;;;;;;;;4981914;28;20193;-63
2022/12/29 14:43:11;;;;;;;11.37;6.10;;;;;;;;;;4962297;28;20194;-63
2022/12/29 14:45:38;;;;;;;10.20;6.03;;;;;;;;;;4977600;28;20196;-63
2022/12/29 14:48:20;;;;;;;9.33;6.27;;;;;;;;;;4954358;28;20189;-63
2022/12/29 14:50:47;;;;;;;12.73;6.90;;;;;;;;;;4960243;28;20285;-64
2022/12/29 14:53:34;;;;;;;11.33;6.83;;;;;;;;;;4963802;28;20228;-63
2022/12/29 14:56:01;;;;;;;13.43;6.20;;;;;;;;;;4969144;28;20197;-63
2022/12/29 14:58:29;;;;;;;14.17;7.20;;;;;;;;;;4971078;28;20220;-64
2022/12/29 15:00:55;;;;;;;10.77;6.67;;;;;;;;;;4971285;28;20204;-63
2022/12/29 15:03:23;;;;;;;11.93;7.37;;;;;;;;;;4971150;28;20514;-63
2022/12/29 15:05:51;;;;;;;17.70;9.03;;;;;;;;;;4954227;28;20790;-64
2022/12/29 15:08:19;;;;;;;11.50;6.50;;;;;;;;;;4971276;28;20193;-63
2022/12/29 15:10:49;;;;;;;11.10;6.50;;;;;;;;;;4971286;28;20280;-63
2022/12/29 15:13:17;;;;;;;12.23;6.23;;;;;;;;;;4953615;28;20209;-63
2022/12/29 15:15:44;;;;;;;10.67;6.33;;;;;;;;;;4970589;28;20285;-63
2022/12/29 15:18:14;;;;;;;7.70;5.40;;;;;;;;;;4970850;28;20244;-63
2022/12/29 15:20:41;;;;;;;11.23;7.13;;;;;;;;;;4970839;28;20196;-63
2022/12/29 15:23:14;;;;;;;14.37;6.93;;;;;;;;;;4953116;28;20194;-63
2022/12/29 15:25:54;;;;;;;11.53;6.57;;;;;;;;;;4939448;29;20218;-66
2022/12/29 15:28:21;;;;;;;12.30;6.60;;;;;;;;;;4924630;29;20195;-63
2022/12/29 15:30:55;;;;;;;10.13;5.87;;;;;;;;;;4928369;29;20198;-64
2022/12/29 15:33:23;;;;;;;13.83;7.30;;;;;;;;;;4932178;29;20206;-63
2022/12/29 15:35:51;;;;;;;13.03;7.17;;;;;;;;;;4935983;29;20199;-63
2022/12/29 15:38:22;;;;;;;13.77;7.03;;;;;;;;;;4930115;29;20194;-63
2022/12/29 15:41:00;;;;;;;13.90;7.50;;;;;;;;;;4936749;29;20543;-63
2022/12/29 15:43:30;;;;;;;16.83;8.03;;;;;;;;;;4912375;29;20265;-64
2022/12/29 15:45:57;;;;;;;16.30;8.73;;;;;;;;;;4941336;29;20717;-63
2022/12/29 15:48:26;;;;;;;13.67;8.90;;;;;;;;;;4935614;29;20229;-64
2022/12/29 15:50:52;;;;;;;14.53;8.07;;;;;;;;;;4924158;29;20210;-64
2022/12/29 15:53:28;;;;;;;12.53;5.93;;;;;;;;;;4924556;29;20305;-63
2022/12/29 15:56:05;;;;;;;11.77;5.63;;;;;;;;;;4936337;29;20204;-63
2022/12/29 15:58:38;;;;;;;10.47;5.97;;;;;;;;;;4939203;29;20686;-63
2022/12/29 16:01:15;;;;;;;11.77;6.47;;;;;;;;;;4944472;29;20234;-64
2022/12/29 16:04:00;;;;;;;15.03;7.67;;;;;;;;;;4935736;29;20298;-63
2022/12/29 16:06:30;;;;;;;13.57;6.57;;;;;;;;;;4932874;29;20261;-63